Time;durP1;ratioP1;P1;durP2;ratioP2;P2;SDS_P1;SDS_P2;PMS_P1;PMS_P2;Temp;Humidity;BMP_temperature;BMP_pressure;BME280_temperature;BME280_humidity;BME280_pressure;Samples;Min_cycle;Max_cycle;Signal;HPM_P1;HPM_P2
2022/12/26 00:01:48;;;;;;;203.30;32.92;;;12.00;99.90;;;;;;5026181;28;20105;-66
2022/12/26 00:04:15;;;;;;;195.00;34.78;;;8.80;99.90;;;;;;5030460;28;20110;-66
2022/12/26 00:06:41;;;;;;;307.05;42.88;;;10.60;99.90;;;;;;5012658;28;20042;-66
2022/12/26 00:09:07;;;;;;;282.65;41.63;;;8.30;99.90;;;;;;5022346;28;20525;-66
2022/12/26 00:11:33;;;;;;;312.42;42.60;;;9.00;99.90;;;;;;5029037;28;20045;-66
2022/12/26 00:14:04;;;;;;;348.65;45.20;;;9.60;99.90;;;;;;5031135;28;20046;-66
2022/12/26 00:16:30;;;;;;;324.65;44.53;;;12.60;99.90;;;;;;5016207;28;20038;-66
2022/12/26 00:18:55;;;;;;;282.40;42.45;;;10.60;99.90;;;;;;5017286;28;20049;-66
2022/12/26 00:21:24;;;;;;;158.73;32.45;;;10.40;99.90;;;;;;5030017;28;20037;-67
2022/12/26 00:23:50;;;;;;;132.73;31.73;;;8.60;99.90;;;;;;5028779;28;20049;-66
2022/12/26 00:26:19;;;;;;;154.27;33.55;;;11.20;99.90;;;;;;5031421;28;20041;-66
2022/12/26 00:28:44;;;;;;;121.78;30.83;;;10.60;99.90;;;;;;5029462;28;20046;-66
2022/12/26 00:31:14;;;;;;;130.70;32.53;;;11.90;99.90;;;;;;5027884;28;20044;-66
2022/12/26 00:33:40;;;;;;;143.05;32.38;;;11.40;99.90;;;;;;5027276;28;20109;-66
2022/12/26 00:36:14;;;;;;;151.95;31.67;;;8.40;99.90;;;;;;5032004;28;20495;-66
2022/12/26 00:38:41;;;;;;;150.27;28.77;;;12.10;99.90;;;;;;5030202;28;20361;-66
2022/12/26 00:41:08;;;;;;;344.17;41.30;;;8.60;99.90;;;;;;5018296;28;20048;-66
2022/12/26 00:43:34;;;;;;;450.48;47.35;;;8.40;99.90;;;;;;5022312;28;20525;-66
2022/12/26 00:46:00;;;;;;;453.48;44.90;;;9.00;99.90;;;;;;5031890;28;20041;-66
2022/12/26 00:48:25;;;;;;;404.23;42.88;;;12.60;99.90;;;;;;5029437;28;20037;-66
2022/12/26 00:50:51;;;;;;;288.30;39.15;;;9.90;99.90;;;;;;5028596;28;20109;-68
2022/12/26 00:53:17;;;;;;;223.88;33.85;;;8.40;99.90;;;;;;5028267;28;20107;-67
2022/12/26 00:55:43;;;;;;;167.50;33.15;;;10.40;99.90;;;;;;5012335;28;20052;-68
2022/12/26 00:58:08;;;;;;;202.65;35.25;;;12.50;99.90;;;;;;5027890;28;20402;-66
2022/12/26 01:00:34;;;;;;;151.05;32.63;;;8.60;99.90;;;;;;5029913;28;20053;-66
2022/12/26 01:03:00;;;;;;;131.38;32.85;;;8.60;99.90;;;;;;5027069;28;20044;-66
2022/12/26 01:05:26;;;;;;;132.50;31.75;;;12.60;99.90;;;;;;5028624;28;20540;-66
2022/12/26 01:07:52;;;;;;;141.18;33.22;;;8.50;99.90;;;;;;5031184;28;20046;-66
2022/12/26 01:10:18;;;;;;;197.75;40.13;;;9.40;99.90;;;;;;5029825;28;20112;-66
2022/12/26 01:12:43;;;;;;;245.82;42.95;;;12.10;99.90;;;;;;5027785;28;20541;-67
2022/12/26 01:15:09;;;;;;;172.40;38.58;;;11.70;99.90;;;;;;5013852;28;20042;-66
2022/12/26 01:17:34;;;;;;;194.05;39.58;;;8.70;99.90;;;;;;5011952;28;20399;-66
2022/12/26 01:20:00;;;;;;;130.77;32.80;;;10.90;99.90;;;;;;5026524;28;20038;-66
2022/12/26 01:22:26;;;;;;;109.63;29.83;;;9.70;99.90;;;;;;5029133;28;20038;-66
2022/12/26 01:24:56;;;;;;;132.80;34.20;;;8.70;99.90;;;;;;5028938;28;20120;-67
2022/12/26 01:27:23;;;;;;;82.43;28.55;;;8.50;99.90;;;;;;5027895;28;20089;-66
2022/12/26 01:29:49;;;;;;;119.47;33.33;;;8.60;99.90;;;;;;5029995;28;20041;-66
2022/12/26 01:32:15;;;;;;;121.28;34.35;;;12.00;99.90;;;;;;5023372;28;20041;-67
2022/12/26 01:34:41;;;;;;;72.25;27.38;;;12.50;99.90;;;;;;5028523;28;20111;-66
2022/12/26 01:37:06;;;;;;;65.07;25.88;;;9.40;99.90;;;;;;5029606;28;20522;-66
2022/12/26 01:39:32;;;;;;;64.90;26.85;;;9.60;99.90;;;;;;5029882;28;20030;-67
2022/12/26 01:41:57;;;;;;;91.30;30.08;;;12.60;99.90;;;;;;5028379;28;20111;-67
2022/12/26 01:44:59;;;;;;;89.13;29.77;;;11.60;99.90;;;;;;5028524;28;20077;-66
2022/12/26 01:48:00;;;;;;;81.68;30.08;;;12.40;99.90;;;;;;5023746;28;20063;-67
2022/12/26 01:50:49;;;;;;;62.20;26.67;;;8.50;99.90;;;;;;4965920;28;20041;-67
2022/12/26 01:53:21;;;;;;;82.03;29.85;;;12.40;99.90;;;;;;5017125;28;20099;-67
2022/12/26 01:55:52;;;;;;;55.55;25.15;;;10.60;99.90;;;;;;5031569;28;20034;-67
2022/12/26 01:58:24;;;;;;;58.97;23.60;;;8.80;99.90;;;;;;5032752;28;20049;-67
2022/12/26 02:00:50;;;;;;;78.57;28.88;;;9.20;99.90;;;;;;5032367;28;20514;-67
2022/12/26 02:06:00;;;;;;;58.85;25.05;;;9.40;99.90;;;;;;5033124;28;20127;-67
2022/12/26 02:08:31;;;;;;;88.13;30.90;;;8.60;99.90;;;;;;5033019;28;20076;-67
2022/12/26 02:11:11;;;;;;;94.53;31.85;;;10.50;99.90;;;;;;5033163;28;20109;-67
2022/12/26 02:13:37;;;;;;;91.72;31.58;;;12.30;99.90;;;;;;5031919;28;20041;-67
2022/12/26 02:16:06;;;;;;;87.72;30.65;;;9.40;99.90;;;;;;5032920;28;20128;-66
2022/12/26 02:18:31;;;;;;;72.88;27.70;;;10.00;99.90;;;;;;5026998;28;20041;-67
2022/12/26 02:21:16;;;;;;;57.17;24.45;;;12.60;99.90;;;;;;5031393;28;20034;-67
2022/12/26 02:24:18;;;;;;;45.28;21.05;;;12.50;99.90;;;;;;5024579;28;20085;-67
2022/12/26 02:27:08;;;;;;;49.67;24.60;;;9.70;99.90;;;;;;5031883;28;20037;-67
2022/12/26 02:29:56;;;;;;;40.03;21.05;;;10.20;99.90;;;;;;5030341;28;20033;-67
2022/12/26 02:32:49;;;;;;;54.45;24.42;;;8.70;99.90;;;;;;5030352;28;20045;-67
2022/12/26 02:35:45;;;;;;;43.25;22.55;;;11.50;99.90;;;;;;5030988;28;20049;-67
2022/12/26 02:38:19;;;;;;;44.45;21.92;;;12.20;99.90;;;;;;5031820;28;20186;-67
2022/12/26 02:41:22;;;;;;;51.03;23.83;;;11.20;99.90;;;;;;5034037;28;20048;-67
2022/12/26 02:47:01;;;;;;;64.40;27.02;;;8.50;99.90;;;;;;5030742;28;20498;-67
2022/12/26 02:47:32;;;;;;;65.60;27.58;;;8.90;99.90;;;;;;5014415;28;20049;-66
2022/12/26 03:13:30;;;;;;;68.88;29.73;;;12.50;99.90;;;;;;5029158;28;20140;-67
2022/12/26 03:18:52;;;;;;;73.82;31.70;;;11.70;99.90;;;;;;5031224;28;20049;-67
2022/12/26 03:21:23;;;;;;;59.58;28.90;;;8.40;99.90;;;;;;5031721;28;20045;-67
2022/12/26 03:23:52;;;;;;;47.75;26.10;;;8.70;99.90;;;;;;5027136;28;20053;-67
2022/12/26 03:26:42;;;;;;;41.55;21.95;;;9.50;99.90;;;;;;5031888;28;20044;-67
2022/12/26 03:32:05;;;;;;;36.50;20.15;;;9.80;99.90;;;;;;5024692;28;20049;-68
2022/12/26 03:34:30;;;;;;;38.67;22.63;;;8.70;99.90;;;;;;5016605;28;20042;-67
2022/12/26 03:37:25;;;;;;;41.90;21.77;;;12.60;99.90;;;;;;5011944;28;20061;-67
2022/12/26 04:19:35;;;;;;;22.80;12.30;;;10.80;99.90;;;;;;5030707;28;20061;-67
2022/12/26 04:45:04;;;;;;;29.88;17.95;;;11.50;99.90;;;;;;5025582;28;20081;-67
2022/12/26 04:47:31;;;;;;;31.98;18.27;;;12.70;99.90;;;;;;5030530;28;20060;-67
2022/12/26 04:50:11;;;;;;;36.10;20.95;;;11.00;99.90;;;;;;5029552;28;20056;-67
2022/12/26 04:55:31;;;;;;;29.17;17.97;;;11.90;99.90;;;;;;5030172;28;20113;-67
2022/12/26 04:57:57;;;;;;;26.13;17.75;;;12.40;99.90;;;;;;5029946;28;20487;-67
2022/12/26 05:00:26;;;;;;;28.35;18.40;;;9.90;99.90;;;;;;5030339;28;20049;-67
2022/12/26 05:11:25;;;;;;;28.67;16.85;;;10.50;99.90;;;;;;5031127;28;20411;-67
2022/12/26 05:13:55;;;;;;;33.95;20.48;;;12.00;99.90;;;;;;5028649;28;20127;-67
2022/12/26 05:30:13;;;;;;;33.08;20.40;;;12.50;99.90;;;;;;5030707;28;20576;-67
2022/12/26 05:35:23;;;;;;;30.00;18.20;;;8.60;99.90;;;;;;5032824;28;20049;-67
2022/12/26 05:37:49;;;;;;;31.83;20.45;;;12.20;99.90;;;;;;5034703;28;20033;-67
2022/12/26 05:40:14;;;;;;;39.35;23.70;;;10.90;99.90;;;;;;5033630;28;20135;-69
2022/12/26 05:42:40;;;;;;;42.72;25.02;;;8.70;99.90;;;;;;5029278;28;20410;-68
2022/12/26 05:45:06;;;;;;;40.53;25.70;;;8.70;99.90;;;;;;5032401;28;20107;-68
2022/12/26 05:47:31;;;;;;;42.85;24.63;;;11.00;99.90;;;;;;5033561;28;20054;-68
2022/12/26 05:49:57;;;;;;;50.85;27.02;;;12.20;99.90;;;;;;5033407;28;20502;-67
2022/12/26 05:52:23;;;;;;;35.03;21.98;;;12.40;99.90;;;;;;5029914;28;20514;-67
2022/12/26 05:54:48;;;;;;;36.80;23.20;;;8.70;99.90;;;;;;5032056;28;20095;-67
2022/12/26 05:57:14;;;;;;;33.75;21.38;;;9.80;99.90;;;;;;5031131;28;20042;-67
2022/12/26 05:59:40;;;;;;;32.53;18.48;;;8.90;99.90;;;;;;5029826;28;20045;-67
2022/12/26 06:02:05;;;;;;;27.95;15.60;;;12.60;99.90;;;;;;5033085;28;20087;-67
2022/12/26 06:04:33;;;;;;;25.88;16.08;;;9.70;99.90;;;;;;5033788;28;20453;-67
2022/12/26 06:06:59;;;;;;;33.97;19.42;;;12.60;99.90;;;;;;5033790;28;20561;-67
2022/12/26 06:09:24;;;;;;;25.95;15.15;;;12.30;99.90;;;;;;5030828;28;20052;-67
2022/12/26 06:11:50;;;;;;;25.58;15.60;;;11.80;99.90;;;;;;5033117;28;20064;-67
2022/12/26 06:14:16;;;;;;;34.70;17.45;;;9.00;99.90;;;;;;5027425;28;20037;-67
2022/12/26 06:16:41;;;;;;;24.42;14.88;;;12.40;99.90;;;;;;5029436;28;20092;-67
2022/12/26 06:19:07;;;;;;;24.00;13.00;;;8.90;99.90;;;;;;5028726;28;20044;-68
2022/12/26 06:21:33;;;;;;;23.35;14.52;;;9.60;99.90;;;;;;5030176;28;20119;-67
2022/12/26 06:23:58;;;;;;;21.70;13.07;;;11.60;99.90;;;;;;5033125;28;20132;-67
2022/12/26 06:26:24;;;;;;;18.08;12.25;;;9.40;99.90;;;;;;5034704;28;20566;-67
2022/12/26 06:28:50;;;;;;;22.60;12.68;;;12.10;99.90;;;;;;5032532;28;20128;-67
2022/12/26 06:31:19;;;;;;;17.95;10.93;;;9.20;99.90;;;;;;5030428;28;20096;-67
2022/12/26 06:33:46;;;;;;;19.50;11.70;;;10.80;99.90;;;;;;5028579;28;20042;-67
2022/12/26 06:36:15;;;;;;;18.98;11.30;;;10.40;99.90;;;;;;5031209;28;20116;-67
2022/12/26 06:38:42;;;;;;;20.88;10.57;;;8.70;99.90;;;;;;5031304;28;20449;-67
2022/12/26 06:41:10;;;;;;;19.80;10.13;;;8.70;99.90;;;;;;5031938;28;20406;-67
2022/12/26 06:43:36;;;;;;;19.00;10.20;;;11.30;99.90;;;;;;5025038;28;20050;-67
2022/12/26 06:46:05;;;;;;;18.88;8.98;;;9.00;99.90;;;;;;5022947;28;20037;-67
2022/12/26 06:48:32;;;;;;;17.38;9.30;;;11.80;99.90;;;;;;5031749;28;20055;-67
2022/12/26 06:51:03;;;;;;;17.98;8.18;;;11.50;99.90;;;;;;5028851;28;20037;-67
2022/12/26 06:53:28;;;;;;;10.00;6.05;;;11.00;99.90;;;;;;5032051;28;20125;-67
2022/12/26 06:55:54;;;;;;;16.33;6.75;;;8.90;99.90;;;;;;5032485;28;20494;-67
2022/12/26 06:58:20;;;;;;;16.08;5.53;;;11.80;99.90;;;;;;5027450;28;20410;-67
2022/12/26 07:00:45;;;;;;;17.25;6.03;;;11.90;99.90;;;;;;5029572;28;20064;-67
2022/12/26 07:03:11;;;;;;;21.27;5.15;;;11.90;99.90;;;;;;5032059;28;20052;-67
2022/12/26 07:05:38;;;;;;;19.02;3.90;;;11.40;99.90;;;;;;5032529;28;20380;-67
2022/12/26 07:08:03;;;;;;;13.00;3.95;;;9.00;99.90;;;;;;5031729;28;20080;-67
2022/12/26 07:10:33;;;;;;;14.43;3.63;;;8.80;99.90;;;;;;5031978;28;20080;-67
2022/12/26 07:12:58;;;;;;;10.35;3.92;;;8.80;99.90;;;;;;5031053;28;20084;-67
2022/12/26 07:15:24;;;;;;;13.75;4.18;;;11.80;99.90;;;;;;5031835;28;20053;-67
2022/12/26 07:17:51;;;;;;;22.55;4.55;;;9.90;99.90;;;;;;5029768;28;20044;-67
2022/12/26 07:20:16;;;;;;;15.15;3.95;;;9.00;99.90;;;;;;5031522;28;20115;-67
2022/12/26 07:22:45;;;;;;;16.73;4.10;;;10.30;99.90;;;;;;5031920;28;20049;-67
2022/12/26 07:25:11;;;;;;;13.98;3.60;;;9.80;99.90;;;;;;5029920;28;20041;-67
2022/12/26 07:27:36;;;;;;;14.55;3.70;;;8.80;99.90;;;;;;5027654;28;20072;-67
2022/12/26 07:30:02;;;;;;;13.38;3.28;;;10.20;99.90;;;;;;5031025;28;20045;-67
2022/12/26 07:32:27;;;;;;;16.55;3.78;;;9.00;99.90;;;;;;5031701;28;20100;-67
2022/12/26 07:34:53;;;;;;;13.52;3.33;;;10.10;99.90;;;;;;5030961;28;20452;-67
2022/12/26 07:37:19;;;;;;;11.60;3.08;;;11.90;99.90;;;;;;5031158;28;20041;-67
2022/12/26 07:39:44;;;;;;;13.18;3.88;;;10.50;99.90;;;;;;5021300;28;20084;-67
2022/12/26 07:42:10;;;;;;;11.73;3.20;;;12.10;99.90;;;;;;5031555;28;20037;-67
2022/12/26 07:44:38;;;;;;;15.18;3.50;;;9.70;99.90;;;;;;5031231;28;20521;-67
2022/12/26 07:47:03;;;;;;;6.57;2.60;;;11.90;99.90;;;;;;5030406;28;20114;-68
2022/12/26 07:49:29;;;;;;;12.55;3.30;;;9.10;99.90;;;;;;5030952;28;20461;-67
2022/12/26 07:51:54;;;;;;;12.98;2.97;;;10.10;99.90;;;;;;5031230;28;20037;-67
2022/12/26 07:54:20;;;;;;;12.75;3.35;;;9.30;99.90;;;;;;5030786;28;20045;-67
2022/12/26 07:56:46;;;;;;;13.48;3.45;;;9.90;99.90;;;;;;5029170;28;20514;-67
2022/12/26 07:59:16;;;;;;;10.13;3.22;;;10.00;99.90;;;;;;5042438;28;20494;-67
2022/12/26 08:01:42;;;;;;;16.52;3.55;;;9.60;99.90;;;;;;5026033;28;20037;-67
2022/12/26 08:04:09;;;;;;;10.48;3.30;;;11.30;99.90;;;;;;5029786;28;20046;-67
2022/12/26 08:06:35;;;;;;;20.10;3.42;;;11.80;99.90;;;;;;5031204;28;20124;-67
2022/12/26 08:09:01;;;;;;;11.98;2.88;;;9.20;99.90;;;;;;5031035;28;20117;-67
2022/12/26 08:11:30;;;;;;;14.55;3.30;;;9.70;99.90;;;;;;5030827;28;20564;-67
2022/12/26 08:13:56;;;;;;;12.18;3.08;;;12.00;99.90;;;;;;5029318;28;20561;-68
2022/12/26 08:16:22;;;;;;;11.30;2.95;;;12.60;99.90;;;;;;5029128;28;20068;-67
2022/12/26 08:18:47;;;;;;;14.95;2.92;;;9.70;99.90;;;;;;5028164;28;20080;-68
2022/12/26 08:21:13;;;;;;;15.52;3.33;;;11.90;99.90;;;;;;5026094;28;20531;-67
2022/12/26 08:23:39;;;;;;;20.80;3.63;;;10.50;99.90;;;;;;5029693;28;20113;-67
2022/12/26 08:26:10;;;;;;;13.77;2.85;;;10.80;99.90;;;;;;5028347;28;20059;-67
2022/12/26 08:28:36;;;;;;;22.38;3.40;;;11.30;99.90;;;;;;5019686;28;20498;-67
2022/12/26 08:31:07;;;;;;;12.50;3.13;;;9.30;99.90;;;;;;5016704;28;20036;-68
2022/12/26 08:33:32;;;;;;;13.27;2.92;;;9.30;99.90;;;;;;5010860;28;20526;-67
2022/12/26 08:36:07;;;;;;;22.27;3.28;;;11.10;99.90;;;;;;5027918;28;20029;-67
2022/12/26 08:38:33;;;;;;;18.08;3.33;;;9.70;99.90;;;;;;5026904;28;20473;-67
2022/12/26 08:40:58;;;;;;;23.58;3.95;;;10.00;99.90;;;;;;5011077;28;20042;-67
2022/12/26 08:43:24;;;;;;;38.08;5.20;;;11.40;99.90;;;;;;5029117;28;20040;-67
2022/12/26 08:46:17;;;;;;;36.35;5.57;;;11.60;99.90;;;;;;5030286;28;20033;-67
2022/12/26 08:48:44;;;;;;;39.50;6.13;;;10.00;99.90;;;;;;5025549;28;20054;-67
2022/12/26 08:51:18;;;;;;;54.67;6.03;;;11.00;99.90;;;;;;5028893;28;20188;-68
2022/12/26 08:53:45;;;;;;;27.55;4.28;;;10.00;99.90;;;;;;5029108;28;20048;-67
2022/12/26 08:56:14;;;;;;;40.20;5.68;;;9.60;99.90;;;;;;5011287;28;20038;-67
2022/12/26 08:58:40;;;;;;;35.90;5.50;;;9.70;99.90;;;;;;5029052;28;20047;-67
2022/12/26 09:01:17;;;;;;;35.60;5.05;;;9.50;99.90;;;;;;5028822;28;20046;-67
2022/12/26 09:03:44;;;;;;;31.42;4.93;;;9.20;99.90;;;;;;5022385;28;20438;-67
2022/12/26 09:06:11;;;;;;;58.08;5.95;;;10.20;99.90;;;;;;5028002;28;20499;-66
2022/12/26 09:08:38;;;;;;;30.42;4.07;;;9.90;99.90;;;;;;5029959;28;20518;-67
2022/12/26 09:11:27;;;;;;;26.10;4.17;;;10.10;99.90;;;;;;4983229;28;1067399;-67
2022/12/26 09:13:54;;;;;;;21.10;3.47;;;9.50;99.90;;;;;;5029126;28;20033;-67
2022/12/26 09:16:23;;;;;;;27.13;3.85;;;9.70;99.90;;;;;;5018353;28;20038;-67
2022/12/26 09:18:54;;;;;;;17.83;3.45;;;9.40;99.90;;;;;;5027854;28;20073;-67
2022/12/26 09:21:19;;;;;;;14.50;3.08;;;9.20;99.90;;;;;;5032440;28;20056;-67
2022/12/26 09:23:45;;;;;;;23.35;3.22;;;8.90;99.90;;;;;;5026384;28;20037;-67
2022/12/26 09:26:18;;;;;;;24.88;3.85;;;8.90;99.90;;;;;;5019987;28;20045;-67
2022/12/26 09:28:45;;;;;;;28.13;4.30;;;9.80;99.90;;;;;;5033554;28;20049;-66
2022/12/26 09:31:23;;;;;;;24.83;4.45;;;9.80;99.90;;;;;;5023972;28;20037;-67
2022/12/26 09:33:49;;;;;;;42.00;5.65;;;10.10;99.90;;;;;;5025738;28;20050;-69
2022/12/26 09:36:17;;;;;;;36.63;4.97;;;9.20;99.90;;;;;;5024930;28;20064;-67
2022/12/26 09:38:44;;;;;;;36.97;5.55;;;9.10;99.90;;;;;;5025233;28;20054;-66
2022/12/26 09:41:31;;;;;;;31.42;5.50;;;9.00;99.90;;;;;;5028425;28;20471;-67
2022/12/26 09:44:23;;;;;;;18.50;3.22;;;8.70;99.90;;;;;;5033471;28;20052;-67
2022/12/26 09:46:57;;;;;;;15.38;3.05;;;8.50;99.90;;;;;;5033792;28;20045;-67
2022/12/26 09:49:57;;;;;;;17.02;2.75;;;8.50;99.90;;;;;;5033558;28;20053;-67
2022/12/26 09:52:46;;;;;;;15.43;2.42;;;10.10;99.90;;;;;;5025099;28;20111;-67
2022/12/26 09:55:56;;;;;;;18.15;4.28;;;10.30;99.90;;;;;;5031244;28;20151;-67
2022/12/26 09:58:33;;;;;;;13.85;2.97;;;8.00;99.90;;;;;;5003964;28;20081;-67
2022/12/26 10:01:14;;;;;;;16.83;3.20;;;9.60;99.90;;;;;;5033803;28;20545;-70
2022/12/26 10:03:55;;;;;;;22.08;3.35;;;9.90;99.90;;;;;;5034273;28;20084;-70
2022/12/26 10:06:23;;;;;;;27.55;3.65;;;9.10;99.90;;;;;;5032754;28;20046;-71
2022/12/26 10:09:04;;;;;;;18.58;3.83;;;9.70;99.90;;;;;;5032866;28;20033;-71
2022/12/26 10:11:42;;;;;;;16.10;3.40;;;8.90;99.90;;;;;;5016588;28;20056;-71
2022/12/26 10:14:37;;;;;;;17.35;3.00;;;9.60;99.90;;;;;;5033030;28;20120;-71
2022/12/26 10:17:17;;;;;;;21.65;2.90;;;9.20;99.90;;;;;;5016720;28;20580;-71
2022/12/26 10:20:01;;;;;;;14.02;3.40;;;9.50;99.90;;;;;;5032635;28;20061;-71
2022/12/26 10:22:35;;;;;;;16.90;3.95;;;9.00;99.90;;;;;;5033152;28;20108;-71
2022/12/26 10:25:08;;;;;;;16.30;3.53;;;9.10;99.90;;;;;;5032085;28;20037;-71
2022/12/26 10:27:39;;;;;;;18.60;2.95;;;9.00;99.90;;;;;;5033092;28;20533;-71
2022/12/26 10:30:12;;;;;;;23.02;3.65;;;9.00;99.90;;;;;;5032702;28;20044;-71
2022/12/26 10:32:50;;;;;;;20.20;2.83;;;9.60;99.90;;;;;;5019218;28;20099;-71
2022/12/26 10:35:40;;;;;;;11.20;2.70;;;9.70;99.90;;;;;;5026757;28;20117;-71
2022/12/26 10:38:29;;;;;;;22.50;3.40;;;8.90;99.90;;;;;;5025687;28;20037;-71
2022/12/26 10:41:02;;;;;;;22.60;3.33;;;9.50;99.90;;;;;;5032663;28;20041;-71
2022/12/26 10:43:33;;;;;;;23.77;4.13;;;9.00;99.90;;;;;;5016385;28;20206;-70
2022/12/26 10:46:32;;;;;;;21.60;3.67;;;9.70;99.90;;;;;;5032565;28;20037;-70
2022/12/26 10:48:58;;;;;;;23.55;4.10;;;9.10;99.90;;;;;;5029652;28;20395;-71
2022/12/26 10:51:25;;;;;;;21.98;3.30;;;9.00;99.90;;;;;;5029028;28;20060;-71
2022/12/26 10:53:52;;;;;;;18.35;3.45;;;9.10;1.00;;;;;;5016017;28;20056;-72
2022/12/26 10:56:20;;;;;;;24.42;4.35;;;9.30;99.90;;;;;;5032660;28;20038;-71
2022/12/26 10:58:57;;;;;;;26.45;4.20;;;9.00;99.90;;;;;;5032522;28;20037;-71
2022/12/26 11:01:36;;;;;;;29.52;4.50;;;9.30;1.00;;;;;;5032598;28;20042;-70
2022/12/26 11:04:05;;;;;;;19.65;3.80;;;9.40;1.00;;;;;;5032043;28;20042;-71
2022/12/26 11:06:38;;;;;;;24.30;4.65;;;9.20;1.00;;;;;;5031611;28;20125;-71
2022/12/26 11:09:05;;;;;;;21.25;3.55;;;9.10;24.90;;;;;;5031865;28;20077;-71
2022/12/26 11:11:44;;;;;;;24.00;4.43;;;9.10;99.90;;;;;;5032292;28;20414;-71
2022/12/26 11:14:30;;;;;;;19.98;3.33;;;9.30;1.00;;;;;;5032113;28;20052;-71
2022/12/26 11:16:57;;;;;;;24.15;3.90;;;9.20;99.90;;;;;;5032406;28;20124;-71
2022/12/26 11:19:35;;;;;;;15.18;4.18;;;9.10;1.00;;;;;;5031653;28;20049;-72
2022/12/26 11:22:23;;;;;;;25.77;3.75;;;9.10;99.90;;;;;;5031718;28;20033;-71
2022/12/26 11:25:07;;;;;;;20.23;4.53;;;9.20;1.00;;;;;;5015647;28;20041;-72
2022/12/26 11:27:32;;;;;;;29.13;4.53;;;9.10;1.00;;;;;;5031162;28;20119;-72
2022/12/26 11:30:15;;;;;;;23.98;4.53;;;9.10;99.90;;;;;;5031423;28;20041;-71
2022/12/26 11:32:44;;;;;;;24.85;4.32;;;9.00;99.90;;;;;;5018394;28;20442;-71
2022/12/26 11:35:22;;;;;;;26.25;4.32;;;9.20;99.70;;;;;;5032091;28;20044;-71
2022/12/26 11:37:56;;;;;;;24.05;4.60;;;9.20;1.00;;;;;;5031354;28;20037;-71
2022/12/26 11:40:27;;;;;;;28.00;4.95;;;9.20;1.00;;;;;;5031052;28;20049;-72
2022/12/26 11:42:58;;;;;;;22.80;3.38;;;9.20;99.90;;;;;;5017952;28;20080;-72
2022/12/26 11:45:29;;;;;;;20.98;3.92;;;9.10;99.90;;;;;;5031200;28;20045;-70
2022/12/26 11:47:58;;;;;;;17.15;3.78;;;9.10;99.90;;;;;;5031527;28;20553;-71
2022/12/26 11:50:28;;;;;;;23.15;4.03;;;8.90;99.90;;;;;;5014652;28;20410;-72
2022/12/26 11:52:56;;;;;;;18.20;4.10;;;8.90;99.90;;;;;;5031381;28;20052;-72
2022/12/26 11:55:22;;;;;;;19.02;3.63;;;8.80;96.10;;;;;;5015550;28;20037;-72
2022/12/26 11:58:20;;;;;;;26.60;4.55;;;8.80;87.40;;;;;;5030677;28;20096;-73
2022/12/26 12:00:48;;;;;;;23.25;3.50;;;8.70;55.80;;;;;;5031075;28;20057;-73
2022/12/26 12:03:23;;;;;;;21.60;4.00;;;8.70;20.50;;;;;;5031043;28;20049;-73
2022/12/26 12:06:02;;;;;;;19.98;3.22;;;8.80;1.20;;;;;;5031565;28;20045;-73
2022/12/26 12:08:45;;;;;;;23.95;3.83;;;8.70;1.00;;;;;;5030458;28;20038;-72
2022/12/26 12:11:34;;;;;;;22.63;3.65;;;8.80;1.00;;;;;;5011729;28;20581;-72
2022/12/26 12:14:21;;;;;;;20.15;3.90;;;8.80;1.00;;;;;;5024886;28;20033;-72
2022/12/26 12:17:13;;;;;;;19.55;4.13;;;8.80;1.00;;;;;;5011614;28;20038;-72
2022/12/26 12:20:04;;;;;;;18.23;3.47;;;8.80;1.00;;;;;;5020079;28;20112;-72
2022/12/26 12:23:14;;;;;;;13.27;3.58;;;8.70;1.00;;;;;;5012317;28;20082;-73
2022/12/26 12:25:40;;;;;;;18.65;3.05;;;8.70;1.00;;;;;;5015749;28;20038;-73
2022/12/26 12:28:17;;;;;;;17.05;3.67;;;8.70;1.00;;;;;;5030342;28;20044;-72
2022/12/26 12:30:50;;;;;;;23.25;4.13;;;8.70;1.00;;;;;;5030275;28;20173;-72
2022/12/26 12:33:24;;;;;;;20.35;3.80;;;8.80;1.00;;;;;;5029804;28;20136;-72
2022/12/26 12:36:01;;;;;;;19.73;3.88;;;8.80;99.90;;;;;;5030758;28;20042;-72
2022/12/26 12:38:45;;;;;;;28.30;4.32;;;8.70;1.00;;;;;;5031253;28;20041;-72
2022/12/26 12:41:39;;;;;;;20.15;4.38;;;8.90;1.00;;;;;;5030790;28;20041;-72
2022/12/26 12:44:26;;;;;;;24.05;4.18;;;8.80;1.00;;;;;;5020187;28;20387;-71
2022/12/26 12:47:00;;;;;;;22.95;3.88;;;8.80;1.00;;;;;;5031043;28;20051;-73
2022/12/26 12:49:57;;;;;;;27.50;4.90;;;8.80;1.00;;;;;;5046944;28;20045;-71
2022/12/26 12:52:53;;;;;;;27.67;4.28;;;8.80;1.00;;;;;;5014451;28;20041;-72
2022/12/26 12:55:44;;;;;;;27.73;3.90;;;8.90;1.00;;;;;;5030420;28;20510;-72
2022/12/26 12:58:22;;;;;;;25.05;3.83;;;8.60;1.00;;;;;;5030318;28;20726;-72
2022/12/26 13:01:16;;;;;;;21.65;4.10;;;8.60;1.00;;;;;;5030490;28;20033;-72
2022/12/26 13:03:55;;;;;;;23.85;4.40;;;8.50;1.00;;;;;;5030373;28;20037;-72
2022/12/26 13:06:33;;;;;;;23.13;4.40;;;8.50;1.00;;;;;;5030408;28;20494;-72
2022/12/26 13:09:06;;;;;;;21.58;3.80;;;8.50;1.00;;;;;;5029584;28;20048;-71
2022/12/26 13:11:38;;;;;;;27.20;4.18;;;8.60;1.00;;;;;;5030250;28;20531;-71
2022/12/26 13:14:29;;;;;;;25.33;4.28;;;8.50;1.00;;;;;;5029633;28;20065;-72
2022/12/26 13:17:01;;;;;;;27.88;4.13;;;8.50;1.00;;;;;;5027971;28;20491;-72
2022/12/26 13:19:33;;;;;;;23.60;3.72;;;8.40;99.90;;;;;;5030180;28;20049;-72
2022/12/26 13:22:03;;;;;;;20.17;4.03;;;8.40;99.90;;;;;;5029890;28;20048;-72
2022/12/26 13:24:41;;;;;;;17.15;3.42;;;8.40;99.90;;;;;;5027142;28;20614;-72
2022/12/26 13:27:26;;;;;;;20.17;3.75;;;8.40;99.90;;;;;;5027622;28;20050;-72
2022/12/26 13:29:52;;;;;;;20.85;3.45;;;8.30;99.90;;;;;;5026948;28;20038;-72
2022/12/26 13:32:26;;;;;;;29.17;4.35;;;8.40;99.90;;;;;;5027922;28;20063;-72
2022/12/26 13:34:54;;;;;;;21.83;4.70;;;8.20;99.90;;;;;;5029780;28;20037;-70
2022/12/26 13:37:38;;;;;;;19.15;4.30;;;8.30;99.90;;;;;;5030069;28;20080;-67
2022/12/26 13:40:15;;;;;;;18.02;3.50;;;8.30;99.90;;;;;;5031121;28;20033;-68
2022/12/26 13:45:36;;;;;;;28.75;4.93;;;8.30;99.90;;;;;;5045703;28;20068;-68
2022/12/26 13:48:17;;;;;;;26.45;3.97;;;8.30;99.90;;;;;;5011894;28;20573;-68
2022/12/26 13:50:48;;;;;;;16.63;4.07;;;8.20;99.90;;;;;;5021179;28;20052;-67
2022/12/26 13:53:23;;;;;;;26.77;4.82;;;8.20;99.90;;;;;;5033369;28;20055;-68
2022/12/26 13:55:53;;;;;;;22.02;4.20;;;8.20;99.90;;;;;;5033783;28;20045;-68
2022/12/26 13:58:43;;;;;;;16.88;3.92;;;8.20;99.90;;;;;;5017484;28;20045;-67
2022/12/26 14:01:51;;;;;;;20.58;3.67;;;8.20;99.90;;;;;;5033362;28;20514;-67
2022/12/26 14:04:50;;;;;;;18.15;3.72;;;8.00;99.90;;;;;;4977119;28;20112;-69
2022/12/26 14:07:32;;;;;;;16.27;3.20;;;8.10;1.00;;;;;;5030894;28;20128;-68
2022/12/26 14:10:03;;;;;;;20.95;3.92;;;8.10;1.00;;;;;;5033189;28;20499;-68
2022/12/26 14:12:48;;;;;;;34.72;5.13;;;8.10;1.00;;;;;;5034256;28;20073;-67
2022/12/26 14:15:49;;;;;;;21.88;3.72;;;8.10;1.00;;;;;;5032822;28;20103;-67
2022/12/26 14:18:17;;;;;;;24.13;3.97;;;8.20;1.00;;;;;;5021944;28;20041;-67
2022/12/26 14:21:20;;;;;;;25.23;4.10;;;8.20;1.00;;;;;;5033109;28;20085;-68
2022/12/26 14:23:59;;;;;;;16.17;3.08;;;8.00;1.00;;;;;;5033716;28;20052;-67
2022/12/26 14:27:06;;;;;;;19.85;3.65;;;8.00;1.00;;;;;;5030241;28;20033;-67
2022/12/26 14:29:49;;;;;;;20.08;3.42;;;8.00;1.00;;;;;;5022587;28;20053;-68
2022/12/26 14:32:42;;;;;;;16.13;3.33;;;8.10;1.00;;;;;;5032186;28;20042;-68
2022/12/26 14:35:18;;;;;;;21.63;3.78;;;8.00;1.00;;;;;;5034464;28;20045;-69
2022/12/26 14:38:21;;;;;;;25.70;3.70;;;8.00;1.00;;;;;;5032925;28;20507;-67
2022/12/26 14:43:09;;;;;;;22.42;3.38;;;8.00;1.00;;;;;;5033122;28;20049;-67
2022/12/26 14:44:20;;;;;;;15.50;2.97;;;7.90;1.00;;;;;;5033835;28;20050;-68
2022/12/26 14:46:49;;;;;;;12.60;3.35;;;7.90;1.00;;;;;;5033252;28;20061;-67
2022/12/26 14:49:34;;;;;;;12.95;2.83;;;7.80;1.00;;;;;;5032394;28;20044;-67
2022/12/26 14:52:21;;;;;;;25.38;4.05;;;8.20;1.00;;;;;;5032377;28;20077;-67
2022/12/26 14:54:48;;;;;;;15.88;3.42;;;7.70;1.00;;;;;;5032485;28;20033;-67
2022/12/26 14:57:41;;;;;;;22.90;3.80;;;7.70;1.00;;;;;;5033604;28;20037;-67
2022/12/26 15:00:24;;;;;;;20.50;3.70;;;7.80;1.00;;;;;;5032220;28;20489;-66
2022/12/26 15:03:17;;;;;;;23.00;4.32;;;7.70;1.00;;;;;;5032596;28;20049;-68
2022/12/26 15:05:47;;;;;;;17.50;2.80;;;7.60;1.00;;;;;;5032483;28;20045;-67
2022/12/26 15:08:31;;;;;;;18.75;3.42;;;7.60;1.00;;;;;;5031147;28;20053;-67
2022/12/26 15:11:23;;;;;;;25.23;4.00;;;7.60;1.00;;;;;;5031715;28;20042;-67
2022/12/26 15:13:51;;;;;;;16.50;3.13;;;7.70;1.00;;;;;;5032474;28;20085;-67
2022/12/26 15:16:31;;;;;;;19.50;3.90;;;7.70;1.00;;;;;;5033176;28;20045;-67
2022/12/26 15:19:43;;;;;;;20.13;4.00;;;7.80;1.00;;;;;;5032124;28;20042;-68
2022/12/26 15:22:36;;;;;;;17.95;3.80;;;7.60;1.00;;;;;;5031541;28;20107;-67